createdAt,value
2019-04-07T00:02:01.004Z,23.63
2019-04-07T00:04:28.780Z,24.73
2019-04-07T00:06:56.454Z,24.23
2019-04-07T00:09:24.157Z,22.43
2019-04-07T00:11:51.967Z,23.33
2019-04-07T00:14:19.665Z,22.20
2019-04-07T00:16:47.287Z,23.27
2019-04-07T00:19:15.540Z,22.27
2019-04-07T00:21:43.285Z,23.03
2019-04-07T00:24:10.952Z,23.10
2019-04-07T00:26:38.593Z,23.30
2019-04-07T00:29:06.322Z,23.50
2019-04-07T00:31:33.989Z,23.87
2019-04-07T00:34:01.633Z,23.67
2019-04-07T00:36:29.281Z,23.87
2019-04-07T00:38:56.894Z,23.37
2019-04-07T00:41:24.843Z,24.03
2019-04-07T00:43:52.539Z,24.90
2019-04-07T00:46:20.186Z,22.87
2019-04-07T00:48:48.563Z,23.93
2019-04-07T00:51:16.732Z,24.87
2019-04-07T00:53:44.362Z,22.87
2019-04-07T00:56:12.480Z,22.67
2019-04-07T00:58:40.740Z,23.00
2019-04-07T01:01:09.119Z,24.47
2019-04-07T01:03:36.764Z,24.47
2019-04-07T01:06:04.426Z,24.07
2019-04-07T01:08:32.634Z,25.67
2019-04-07T01:11:00.259Z,23.90
2019-04-07T01:13:27.926Z,23.93
2019-04-07T01:15:56.064Z,23.83
2019-04-07T01:18:26.120Z,23.03
2019-04-07T01:20:53.274Z,23.90
2019-04-07T01:23:20.993Z,24.00
2019-04-07T01:25:48.688Z,22.57
2019-04-07T01:28:16.377Z,23.23
2019-04-07T01:30:44.157Z,23.47
2019-04-07T01:33:11.787Z,22.37
2019-04-07T01:35:46.257Z,22.57
2019-04-07T01:38:08.864Z,22.73
2019-04-07T01:40:36.532Z,21.40
2019-04-07T01:43:22.693Z,23.00
2019-04-07T01:46:12.586Z,23.07
2019-04-07T01:48:59.714Z,23.33
2019-04-07T01:51:50.390Z,24.03
2019-04-07T01:54:47.236Z,24.07
2019-04-07T01:57:37.160Z,23.63
2019-04-07T02:00:32.938Z,23.70
2019-04-07T02:03:20.388Z,22.43
2019-04-07T02:06:07.599Z,22.37
2019-04-07T02:08:46.327Z,24.00
2019-04-07T02:11:20.067Z,23.37
2019-04-07T02:14:10.186Z,23.50
2019-04-07T02:16:51.294Z,23.90
2019-04-07T02:19:28.638Z,23.77
2019-04-07T02:22:15.889Z,22.33
2019-04-07T02:25:10.748Z,23.77
2019-04-07T02:27:47.957Z,22.50
2019-04-07T02:30:48.067Z,23.27
2019-04-07T02:33:39.330Z,23.30
2019-04-07T02:36:22.707Z,24.63
2019-04-07T02:39:00.632Z,26.03
2019-04-07T02:41:48.855Z,22.50
2019-04-07T02:44:38.964Z,21.80
2019-04-07T02:47:29.703Z,22.80
2019-04-07T02:50:10.202Z,22.40
2019-04-07T02:52:59.798Z,23.43
2019-04-07T02:55:50.627Z,22.90
2019-04-07T02:58:55.870Z,25.40
2019-04-07T03:01:52.067Z,25.17
2019-04-07T03:04:47.899Z,23.13
2019-04-07T03:07:50.452Z,22.47
2019-04-07T03:10:38.492Z,24.17
2019-04-07T03:13:43.523Z,24.17
2019-04-07T03:16:29.319Z,23.73
2019-04-07T03:19:03.133Z,23.47
2019-04-07T03:21:59.555Z,24.60
2019-04-07T03:24:33.457Z,25.07
2019-04-07T03:27:22.494Z,23.40
2019-04-07T03:30:17.838Z,23.97
2019-04-07T03:33:13.398Z,24.77
2019-04-07T03:36:06.815Z,24.00
2019-04-07T03:38:53.658Z,24.57
2019-04-07T03:41:29.521Z,24.77
2019-04-07T03:44:06.130Z,23.63
2019-04-07T03:47:08.803Z,23.03
2019-04-07T03:50:03.193Z,22.77
2019-04-07T03:52:51.042Z,22.80
2019-04-07T03:55:41.190Z,23.40
2019-04-07T03:58:37.608Z,23.67
2019-04-07T04:01:26.001Z,23.70
2019-04-07T04:04:03.199Z,23.10
2019-04-07T04:06:49.503Z,24.73
2019-04-07T04:09:26.439Z,22.27
2019-04-07T04:12:07.214Z,23.27
2019-04-07T04:14:43.910Z,23.63
2019-04-07T04:17:11.624Z,23.80
2019-04-07T04:19:39.201Z,24.90
2019-04-07T04:22:07.374Z,24.73
2019-04-07T04:24:35.172Z,25.53
2019-04-07T04:27:02.817Z,25.63
2019-04-07T04:29:30.490Z,23.93
2019-04-07T04:31:59.633Z,25.07
2019-04-07T04:34:27.324Z,25.03
2019-04-07T04:36:55.049Z,22.80
2019-04-07T04:39:22.927Z,24.60
2019-04-07T04:41:50.888Z,24.70
2019-04-07T04:44:18.749Z,23.83
2019-04-07T04:46:47.305Z,23.27
2019-04-07T04:49:15.143Z,24.50
2019-04-07T04:51:42.750Z,25.27
2019-04-07T04:54:11.086Z,24.13
2019-04-07T04:56:39.435Z,25.27
2019-04-07T04:59:07.457Z,24.27
2019-04-07T05:01:36.092Z,26.67
2019-04-07T05:04:03.955Z,25.03
2019-04-07T05:06:31.594Z,25.77
2019-04-07T05:08:59.314Z,24.90
2019-04-07T05:11:26.951Z,25.37
2019-04-07T05:13:54.615Z,24.83
2019-04-07T05:16:22.928Z,23.53
2019-04-07T05:18:50.713Z,24.67
2019-04-07T05:21:18.582Z,25.10
2019-04-07T05:23:46.227Z,25.47
2019-04-07T05:26:14.692Z,24.60
2019-04-07T05:28:42.643Z,24.23
2019-04-07T05:31:10.449Z,27.07
2019-04-07T05:33:38.212Z,24.30
2019-04-07T05:36:05.954Z,21.63
2019-04-07T05:38:33.712Z,23.77
2019-04-07T05:41:01.876Z,24.43
2019-04-07T05:43:29.630Z,24.13
2019-04-07T05:45:57.609Z,23.07
2019-04-07T05:48:25.792Z,25.43
2019-04-07T05:50:53.844Z,24.40
2019-04-07T05:53:21.620Z,25.47
2019-04-07T05:55:49.269Z,25.53
2019-04-07T05:58:17.913Z,25.03
2019-04-07T06:00:47.018Z,24.33
2019-04-07T06:03:15.378Z,23.87
2019-04-07T06:05:45.328Z,23.67
2019-04-07T06:08:25.800Z,23.60
2019-04-07T06:10:41.963Z,21.60
2019-04-07T06:13:12.944Z,23.07
2019-04-07T06:15:39.151Z,21.53
2019-04-07T06:18:06.814Z,22.03
2019-04-07T06:20:34.478Z,20.53
2019-04-07T06:23:02.123Z,19.97
2019-04-07T06:25:33.109Z,21.40
2019-04-07T06:27:59.315Z,19.97
2019-04-07T06:30:30.010Z,20.07
2019-04-07T06:32:56.982Z,19.87
2019-04-07T06:35:24.688Z,20.43
2019-04-07T06:37:53.050Z,20.90
2019-04-07T06:40:22.196Z,20.57
2019-04-07T06:42:50.103Z,19.77
2019-04-07T06:45:21.807Z,20.67
2019-04-07T06:47:55.271Z,20.07
2019-04-07T06:50:49.357Z,20.63
2019-04-07T06:53:34.756Z,18.80
2019-04-07T06:56:25.903Z,19.60
2019-04-07T06:59:13.864Z,19.97
2019-04-07T07:02:13.270Z,18.93
2019-04-07T07:04:51.615Z,18.90
2019-04-07T07:07:48.836Z,18.53
2019-04-07T07:10:38.989Z,20.27
2019-04-07T07:13:34.771Z,20.07
2019-04-07T07:16:09.577Z,19.57
2019-04-07T07:19:02.155Z,19.63
2019-04-07T07:21:43.641Z,19.43
2019-04-07T07:24:11.774Z,19.60
2019-04-07T07:26:40.776Z,19.77
2019-04-07T07:29:08.420Z,19.97
2019-04-07T07:31:36.065Z,19.03
2019-04-07T07:34:03.904Z,18.97
2019-04-07T07:36:31.686Z,19.43
2019-04-07T07:39:02.257Z,19.33
2019-04-07T07:41:29.050Z,19.10
2019-04-07T07:44:00.722Z,19.10
2019-04-07T07:46:26.803Z,19.07
2019-04-07T07:48:58.830Z,18.67
2019-04-07T07:51:24.797Z,19.27
2019-04-07T07:53:52.696Z,17.77
2019-04-07T07:56:21.321Z,18.27
2019-04-07T07:58:49.326Z,18.77
2019-04-07T08:01:17.833Z,19.47
2019-04-07T08:03:45.918Z,18.23
2019-04-07T08:06:13.585Z,18.30
2019-04-07T08:08:41.238Z,17.93
2019-04-07T08:11:08.890Z,18.10
2019-04-07T08:13:42.040Z,18.40
2019-04-07T08:16:06.372Z,18.10
2019-04-07T08:18:36.148Z,18.47
2019-04-07T08:21:04.299Z,18.67
2019-04-07T08:23:31.983Z,18.23
2019-04-07T08:26:00.359Z,17.77
2019-04-07T08:28:28.064Z,18.90
2019-04-07T08:30:55.787Z,18.50
2019-04-07T08:33:23.744Z,18.00
2019-04-07T08:35:54.888Z,19.13
2019-04-07T08:38:25.574Z,19.40
2019-04-07T08:40:54.073Z,18.10
2019-04-07T08:43:22.819Z,19.60
2019-04-07T08:45:51.412Z,19.13
2019-04-07T08:48:20.651Z,18.97
2019-04-07T08:50:48.626Z,20.20
2019-04-07T08:53:16.937Z,19.33
2019-04-07T08:55:47.320Z,18.87
2019-04-07T08:58:23.597Z,19.13
2019-04-07T09:00:50.992Z,18.43
2019-04-07T09:03:17.091Z,18.87
2019-04-07T09:05:45.521Z,18.77
2019-04-07T09:08:13.856Z,20.03
2019-04-07T09:10:49.200Z,18.87
2019-04-07T09:13:15.549Z,18.83
2019-04-07T09:15:52.269Z,18.80
2019-04-07T09:18:30.767Z,17.93
2019-04-07T09:21:19.942Z,19.00
2019-04-07T09:24:03.884Z,18.93
2019-04-07T09:26:44.543Z,19.27
2019-04-07T09:29:31.239Z,19.87
2019-04-07T09:32:22.594Z,19.83
2019-04-07T09:35:22.769Z,18.83
2019-04-07T09:38:03.156Z,20.73
2019-04-07T09:40:59.352Z,20.57
2019-04-07T09:43:46.517Z,19.27
2019-04-07T09:46:23.163Z,19.73
2019-04-07T09:49:23.812Z,18.97
2019-04-07T09:52:00.973Z,18.90
2019-04-07T09:55:03.115Z,19.67
2019-04-07T09:57:47.314Z,18.43
2019-04-07T10:00:35.226Z,18.57
2019-04-07T10:03:31.266Z,19.10
2019-04-07T10:06:10.846Z,19.13
2019-04-07T10:08:56.355Z,17.83
2019-04-07T10:11:46.367Z,20.13
2019-04-07T10:14:48.822Z,19.27
2019-04-07T10:17:39.490Z,19.27
2019-04-07T10:20:22.876Z,19.30
2019-04-07T10:23:19.653Z,19.43
2019-04-07T10:26:21.808Z,18.63
2019-04-07T10:29:00.577Z,19.73
2019-04-07T10:31:46.390Z,19.80
2019-04-07T10:34:23.733Z,19.17
2019-04-07T10:37:16.927Z,19.47
2019-04-07T10:40:00.382Z,18.07
2019-04-07T10:42:46.589Z,20.20
2019-04-07T10:45:32.937Z,19.33
2019-04-07T10:48:25.907Z,19.30
2019-04-07T10:51:29.331Z,18.43
2019-04-07T10:54:12.512Z,18.70
2019-04-07T10:57:02.005Z,19.67
2019-04-07T10:59:44.249Z,20.10
2019-04-07T11:02:22.594Z,20.07
2019-04-07T11:05:18.681Z,19.93
2019-04-07T11:08:14.962Z,19.77
2019-04-07T11:10:54.328Z,20.60
2019-04-07T11:13:40.355Z,19.07
2019-04-07T11:16:14.726Z,22.13
2019-04-07T11:19:02.008Z,21.00
2019-04-07T11:21:58.000Z,21.63
2019-04-07T11:24:48.779Z,20.87
2019-04-07T11:27:36.541Z,22.13
2019-04-07T11:30:11.396Z,19.40
2019-04-07T11:32:48.237Z,19.60
2019-04-07T11:35:21.108Z,20.60
2019-04-07T11:38:04.623Z,19.27
2019-04-07T11:40:57.905Z,16.57
2019-04-07T11:43:47.945Z,16.50
2019-04-07T11:46:34.038Z,16.53
2019-04-07T11:49:19.532Z,17.00
2019-04-07T11:51:52.415Z,17.43
2019-04-07T11:54:35.032Z,16.50
2019-04-07T11:57:09.816Z,15.80
2019-04-07T11:59:45.818Z,16.43
2019-04-07T12:02:36.387Z,15.73
2019-04-07T12:05:31.061Z,15.80
2019-04-07T12:08:16.700Z,15.43
2019-04-07T12:11:05.031Z,16.23
2019-04-07T12:13:54.320Z,15.43
2019-04-07T12:16:40.204Z,15.13
2019-04-07T12:19:26.148Z,14.83
2019-04-07T12:22:03.441Z,13.93
2019-04-07T12:24:39.933Z,14.43
2019-04-07T12:27:27.034Z,14.60
2019-04-07T12:30:29.157Z,14.87
2019-04-07T12:33:22.904Z,14.20
2019-04-07T12:36:03.587Z,14.03
2019-04-07T12:39:09.166Z,14.27
2019-04-07T12:41:50.057Z,14.43
2019-04-07T12:44:37.404Z,13.93
2019-04-07T12:47:23.739Z,14.33
2019-04-07T12:50:04.100Z,14.47
2019-04-07T12:52:49.884Z,13.40
2019-04-07T12:55:37.223Z,13.43
2019-04-07T12:58:22.185Z,12.73
2019-04-07T13:01:09.733Z,13.20
2019-04-07T13:03:52.538Z,13.87
2019-04-07T13:06:49.026Z,12.87
2019-04-07T13:09:48.131Z,13.73
2019-04-07T13:12:47.843Z,13.10
2019-04-07T13:15:35.111Z,13.07
2019-04-07T13:18:31.593Z,12.43
2019-04-07T13:21:08.948Z,13.00
2019-04-07T13:24:06.183Z,12.60
2019-04-07T13:26:49.884Z,11.07
2019-04-07T13:29:34.316Z,11.73
2019-04-07T13:32:21.883Z,11.87
2019-04-07T13:34:58.353Z,12.33
2019-04-07T13:37:31.846Z,11.57
2019-04-07T13:40:21.812Z,10.87
2019-04-07T13:43:00.774Z,11.80
2019-04-07T13:45:53.918Z,10.90
2019-04-07T13:48:41.445Z,11.13
2019-04-07T13:51:31.217Z,10.87
2019-04-07T13:54:15.031Z,10.50
2019-04-07T13:57:02.298Z,10.43
2019-04-07T13:59:44.070Z,10.27
2019-04-07T14:02:45.640Z,11.03
2019-04-07T14:05:21.372Z,11.13
2019-04-07T14:08:07.125Z,10.70
2019-04-07T14:10:52.821Z,11.50
2019-04-07T14:13:31.150Z,12.00
2019-04-07T14:16:17.049Z,12.13
2019-04-07T14:19:16.680Z,11.87
2019-04-07T14:22:10.098Z,12.07
2019-04-07T14:25:00.349Z,11.80
2019-04-07T14:27:37.328Z,11.87
2019-04-07T14:30:25.976Z,11.53
2019-04-07T14:33:25.121Z,10.83
2019-04-07T14:36:08.084Z,10.90
2019-04-07T14:38:43.567Z,11.97
2019-04-07T14:41:39.350Z,12.93
2019-04-07T14:44:29.329Z,12.03
2019-04-07T14:47:11.870Z,11.47
2019-04-07T14:49:49.479Z,11.90
2019-04-07T14:52:42.629Z,12.37
2019-04-07T14:55:38.498Z,12.53
2019-04-07T14:58:34.458Z,11.57
2019-04-07T15:01:25.669Z,11.13
2019-04-07T15:03:53.404Z,12.17
2019-04-07T15:06:21.740Z,11.53
2019-04-07T15:09:08.823Z,12.50
2019-04-07T15:11:58.805Z,11.73
2019-04-07T15:14:26.449Z,12.27
2019-04-07T15:16:54.677Z,12.70
2019-04-07T15:19:22.420Z,12.87
2019-04-07T15:21:53.071Z,12.80
2019-04-07T15:24:19.886Z,11.13
2019-04-07T15:26:49.883Z,12.00
2019-04-07T15:29:17.000Z,11.90
2019-04-07T15:31:49.051Z,11.37
2019-04-07T15:34:15.149Z,10.20
2019-04-07T15:36:43.920Z,10.30
2019-04-07T15:39:11.746Z,11.17
2019-04-07T15:41:42.526Z,10.27
2019-04-07T15:44:10.491Z,9.77
2019-04-07T15:46:38.445Z,9.67
2019-04-07T15:49:06.852Z,9.67
2019-04-07T15:51:36.191Z,10.20
2019-04-07T15:54:03.957Z,11.20
2019-04-07T15:56:32.511Z,10.53
2019-04-07T15:59:01.404Z,10.23
2019-04-07T16:01:29.789Z,10.50
2019-04-07T16:03:57.468Z,9.50
2019-04-07T16:06:25.881Z,9.13
2019-04-07T16:08:57.309Z,9.17
2019-04-07T16:11:24.780Z,8.53
2019-04-07T16:13:52.632Z,9.80
2019-04-07T16:16:21.004Z,9.40
2019-04-07T16:18:48.760Z,9.57
2019-04-07T16:21:17.404Z,9.13
2019-04-07T16:23:50.474Z,9.00
2019-04-07T16:26:15.516Z,9.13
2019-04-07T16:28:45.403Z,8.93
2019-04-07T16:31:13.287Z,8.20
2019-04-07T16:33:41.063Z,8.50
2019-04-07T16:36:08.805Z,8.43
2019-04-07T16:38:36.608Z,8.60
2019-04-07T16:41:04.703Z,8.37
2019-04-07T16:43:33.904Z,9.10
2019-04-07T16:46:02.036Z,8.40
2019-04-07T16:48:30.468Z,8.03
2019-04-07T16:50:58.174Z,7.73
2019-04-07T16:53:25.947Z,9.13
2019-04-07T16:55:55.609Z,8.33
2019-04-07T16:58:23.054Z,8.50
2019-04-07T17:00:51.073Z,8.33
2019-04-07T17:03:18.727Z,8.77
2019-04-07T17:05:46.413Z,8.73
2019-04-07T17:08:17.831Z,8.77
2019-04-07T17:10:43.679Z,8.23
2019-04-07T17:13:19.789Z,8.70
2019-04-07T17:15:41.961Z,8.10
2019-04-07T17:18:34.471Z,8.70
2019-04-07T17:21:02.301Z,9.10
2019-04-07T17:23:29.967Z,8.63
2019-04-07T17:25:57.711Z,8.57
2019-04-07T17:28:25.408Z,9.43
2019-04-07T17:30:57.278Z,7.80
2019-04-07T17:33:24.816Z,8.67
2019-04-07T17:35:54.165Z,8.70
2019-04-07T17:38:24.322Z,9.07
2019-04-07T17:40:51.994Z,8.13
2019-04-07T17:43:47.355Z,8.47
2019-04-07T17:46:25.958Z,8.57
2019-04-07T17:49:05.586Z,8.80
2019-04-07T17:51:51.098Z,7.60
2019-04-07T17:54:38.548Z,8.37
2019-04-07T17:57:25.835Z,8.43
2019-04-07T18:00:04.672Z,9.10
2019-04-07T18:02:53.919Z,9.17
2019-04-07T18:05:53.555Z,8.43
2019-04-07T18:08:45.607Z,7.77
2019-04-07T18:11:39.080Z,8.43
2019-04-07T18:14:15.799Z,8.73
2019-04-07T18:17:04.533Z,8.63
2019-04-07T18:19:51.693Z,8.33
2019-04-07T18:22:29.763Z,9.13
2019-04-07T18:25:10.560Z,7.70
2019-04-07T18:27:48.157Z,8.60
2019-04-07T18:30:34.706Z,9.03
2019-04-07T18:33:31.395Z,8.23
2019-04-07T18:36:15.771Z,9.20
2019-04-07T18:39:03.141Z,9.00
2019-04-07T18:42:04.169Z,9.13
2019-04-07T18:44:57.627Z,9.83
2019-04-07T18:47:45.636Z,9.27
2019-04-07T18:50:38.426Z,10.17
2019-04-07T18:53:16.773Z,9.33
2019-04-07T18:56:22.609Z,9.20
2019-04-07T18:59:12.901Z,9.37
2019-04-07T19:01:56.739Z,9.77
2019-04-07T19:04:42.387Z,9.77
2019-04-07T19:07:41.769Z,9.47
2019-04-07T19:10:45.491Z,9.77
2019-04-07T19:13:24.766Z,10.20
2019-04-07T19:16:01.877Z,9.37
2019-04-07T19:18:42.157Z,10.00
2019-04-07T19:21:37.625Z,9.40
2019-04-07T19:24:36.173Z,10.27
2019-04-07T19:27:21.973Z,10.80
2019-04-07T19:30:03.965Z,10.97
2019-04-07T19:32:56.539Z,10.30
2019-04-07T19:35:42.457Z,10.27
2019-04-07T19:38:28.310Z,10.37
2019-04-07T19:41:33.903Z,12.57
2019-04-07T19:44:20.262Z,12.50
2019-04-07T19:47:01.625Z,12.73
2019-04-07T19:50:01.003Z,12.10
2019-04-07T19:52:48.079Z,11.70
2019-04-07T19:55:37.580Z,12.23
2019-04-07T19:58:24.694Z,12.73
2019-04-07T20:01:01.761Z,11.90
2019-04-07T20:03:47.348Z,12.87
2019-04-07T20:06:37.403Z,12.37
2019-04-07T20:09:15.615Z,12.60
2019-04-07T20:12:02.847Z,12.20
2019-04-07T20:14:49.218Z,12.07
2019-04-07T20:17:32.314Z,12.73
2019-04-07T20:20:31.297Z,11.97
2019-04-07T20:23:30.605Z,11.57
2019-04-07T20:26:22.676Z,11.67
2019-04-07T20:29:09.165Z,10.93
2019-04-07T20:31:51.588Z,11.73
2019-04-07T20:34:45.064Z,11.93
2019-04-07T20:37:30.125Z,11.77
2019-04-07T20:40:25.805Z,12.10
2019-04-07T20:43:12.903Z,11.23
2019-04-07T20:46:03.011Z,11.33
2019-04-07T20:48:39.841Z,11.57
2019-04-07T20:51:18.767Z,11.60
2019-04-07T20:53:59.816Z,13.40
2019-04-07T20:56:57.590Z,11.83
2019-04-07T20:59:51.360Z,10.97
2019-04-07T21:02:35.053Z,11.80
2019-04-07T21:05:10.522Z,11.43
2019-04-07T21:08:01.115Z,12.00
2019-04-07T21:10:44.412Z,11.10
2019-04-07T21:13:19.318Z,12.57
2019-04-07T21:16:08.231Z,12.30
2019-04-07T21:18:59.118Z,11.43
2019-04-07T21:21:39.578Z,11.00
2019-04-07T21:24:29.255Z,11.53
2019-04-07T21:27:20.601Z,11.03
2019-04-07T21:29:53.882Z,12.03
2019-04-07T21:32:41.155Z,11.70
2019-04-07T21:35:29.227Z,11.60
2019-04-07T21:38:32.758Z,11.20
2019-04-07T21:41:38.329Z,11.90
2019-04-07T21:44:28.551Z,11.20
2019-04-07T21:47:14.475Z,10.73
2019-04-07T21:50:05.438Z,11.40
2019-04-07T21:52:40.907Z,11.20
2019-04-07T21:55:30.821Z,11.27
2019-04-07T21:58:16.644Z,11.43
2019-04-07T22:00:56.579Z,11.67
2019-04-07T22:03:46.183Z,11.60
2019-04-07T22:06:32.026Z,11.73
2019-04-07T22:09:25.299Z,11.57
2019-04-07T22:11:54.581Z,10.77
2019-04-07T22:14:22.858Z,11.90
2019-04-07T22:16:51.272Z,10.77
2019-04-07T22:19:18.963Z,11.43
2019-04-07T22:21:46.605Z,10.67
2019-04-07T22:24:15.175Z,11.70
2019-04-07T22:26:46.203Z,12.00
2019-04-07T22:29:12.403Z,11.93
2019-04-07T22:31:47.792Z,11.63
2019-04-07T22:34:16.420Z,12.43
2019-04-07T22:36:46.995Z,12.10
2019-04-07T22:39:14.152Z,12.77
2019-04-07T22:41:43.003Z,11.87
2019-04-07T22:44:11.348Z,12.27
2019-04-07T22:46:39.615Z,11.53
2019-04-07T22:49:07.412Z,12.00
2019-04-07T22:51:35.054Z,11.63
2019-04-07T22:54:02.784Z,11.83
2019-04-07T22:56:31.084Z,11.30
2019-04-07T22:58:58.810Z,10.40
2019-04-07T23:01:27.183Z,11.33
2019-04-07T23:03:56.000Z,10.60
2019-04-07T23:06:24.489Z,11.60
2019-04-07T23:08:53.066Z,11.20
2019-04-07T23:11:20.750Z,11.03
2019-04-07T23:13:49.303Z,10.70
2019-04-07T23:16:17.918Z,11.23
2019-04-07T23:18:46.533Z,11.57
2019-04-07T23:21:14.905Z,10.73
2019-04-07T23:23:42.602Z,10.70
2019-04-07T23:26:10.274Z,11.17
2019-04-07T23:28:37.935Z,9.80
2019-04-07T23:31:05.644Z,10.87
2019-04-07T23:33:34.656Z,9.90
2019-04-07T23:36:02.438Z,10.77
2019-04-07T23:38:30.453Z,10.20
2019-04-07T23:40:58.191Z,10.80
2019-04-07T23:43:25.837Z,12.53
2019-04-07T23:45:53.458Z,10.73
2019-04-07T23:48:21.159Z,10.17
2019-04-07T23:50:49.785Z,10.83
2019-04-07T23:54:07.585Z,10.50
2019-04-07T23:56:36.413Z,10.73
2019-04-07T23:59:04.804Z,11.47
